Terminal Aerodrome Forecast
Issued by NWS

Home | Current Version | Previous Version | Text Only | Print | Product List | Glossary Off
Versions: 1 2 3 4 5 6 7 8 9 10 11 12

000
FTUS43 KOAX 282335
TAFCDR
TAF
KCDR 282335Z 2900/2924 10006KT P6SM FEW080
     FM290300 VRB05KT P6SM SKC
     FM291800 36005KT P6SM FEW080=

USA.gov is the U.S. government's official web portal to all federal, state and local government web resources and services.